^^
LKKV - Karlovy Vary, Czech Republic
Entfernung von Station: O 36km
Aktualisierung: 25.02.2018 08:30
Klar
Klar
 Wind von ONO
Wind: ONO 11 km/h
Temperatur: -13°C
Windkühle: -19°C
Taupunkt: -16°C
Luftfeuchte: 78%
Luftdruck: 1024 hPa
Zusammenfassung: Klar
Sicht: mehr als 10 km
2018/02/25 07:30 LKKV 250730Z 06006KT 030V090 CAVOK M13/M16 Q1024
EDQM - Hof, Germany
Entfernung von Station: W 40km
Aktualisierung: 24.02.2018 17:50
nicht aktuell
Klar
Klar
 Wind von NO
Wind: NO 26 km/h, Windböen: 44 km/h
Temperatur: -5°C
Windkühle: -12°C
Taupunkt: -15°C
Luftfeuchte: 46%
Luftdruck: 1022 hPa
Zusammenfassung: Klar
Sicht: mehr als 10 km
2018/02/24 16:50 EDQM 241650Z 04014G24KT CAVOK M05/M15 Q1022
 
ETIC - Grafenwoehr, Germany
Entfernung von Station: SSW 72km
Aktualisierung: 25.02.2018 07:56
Klar
Klar
 Wind von calm
Wind: Windstill
Temperatur: -11°C
Taupunkt: -14°C
Luftfeuchte: 79%
Luftdruck: 1024.7 hPa
Wolken: Klar
Sicht: 10 km
2018/02/25 06:56 ETIC 250656Z AUTO 00000KT 9999 CLR M11/M14 A3026 RMK AO2 SLP289 T11111137 FZRANO $
EDAC - Altenburg-Nobitz, Germany
Entfernung von Station: N 80km
Aktualisierung: 24.02.2018 16:50
nicht aktuell
wolkig
wolkig
 Wind von NO
Wind: NO 22 km/h, Windböen: 41 km/h
Temperatur: -1°C
Windkühle: -7°C
Taupunkt: -12°C
Luftfeuchte: 43%
Luftdruck: 1026 hPa
Wolken: wolkig
Sicht: 10 km
Wolken Details: wolkig 1372 m
2018/02/24 15:50 EDAC 241550Z 05012G22KT 020V080 9999 SCT045 M01/M12 Q1026
 
LKLN - Plzen Line, Czech Republic
Entfernung von Station: SO 88km
Aktualisierung: 25.02.2018 08:00
Klar
Klar
 Wind von NO
Wind: NO 11 km/h
Temperatur: -10°C
Windkühle: -16°C
Taupunkt: -14°C
Luftfeuchte: 73%
Luftdruck: 1026 hPa
Zusammenfassung: Klar
Sicht: mehr als 10 km
2018/02/25 07:00 LKLN 250700Z AUTO 05006KT 360V100 CAVOK M10/M14 Q1026
ETIH - Hohenfels (usa-A, Germany
Entfernung von Station: SSW 124km
Aktualisierung: 25.02.2018 07:56
Klar
Klar
 Wind von ONO
Wind: ONO 9 km/h
Temperatur: -10°C
Windkühle: -15°C
Taupunkt: -13°C
Luftfeuchte: 79%
Luftdruck: 1024.4 hPa
Wolken: Klar
Sicht: 10 km
2018/02/25 06:56 ETIH 250656Z AUTO 07005KT 9999 CLR M10/M13 A3025 RMK AO2 SLP286 T10971130 $
 
EDDE - Erfurt/Bindersleben, Germany
Entfernung von Station: NW 129km
Aktualisierung: 25.02.2018 08:20
Klar
Klar
 Wind von NO
Wind: NO 15 km/h
Temperatur: -10°C
Windkühle: -17°C
Taupunkt: -13°C
Luftfeuchte: 79%
Luftdruck: 1029 hPa
Zusammenfassung: Klar
Sicht: mehr als 10 km
2018/02/25 07:20 EDDE 250720Z 04008KT CAVOK M10/M13 Q1029 NOSIG
EDDP - Leipzig/Schkeudidtz, Germany
Entfernung von Station: N 129km
Aktualisierung: 25.02.2018 08:20
Klar
Klar
 Wind von NO
Wind: NO 17 km/h
Temperatur: -9°C
Windkühle: -16°C
Taupunkt: -12°C
Luftfeuchte: 79%
Luftdruck: 1031 hPa
Zusammenfassung: Klar
Sicht: mehr als 10 km
2018/02/25 07:20 EDDP 250720Z 05009KT CAVOK M09/M12 Q1031 NOSIG
 
EDDN - Nuernberg, Germany
Entfernung von Station: SW 130km
Aktualisierung: 25.02.2018 08:20
Klar
Klar
 Wind von ONO
Wind: ONO 11 km/h
Temperatur: -8°C
Windkühle: -13°C
Taupunkt: -14°C
Luftfeuchte: 62%
Luftdruck: 1025 hPa
Zusammenfassung: Klar
Sicht: mehr als 10 km
2018/02/25 07:20 EDDN 250720Z 07006KT 030V100 CAVOK M08/M14 Q1025 NOSIG
LKPR - Prague/Ruzyne, Czech Republic
Entfernung von Station: O 133km
Aktualisierung: 25.02.2018 08:30
Klar
Klar
 Wind von N
Wind: N 9 km/h
Temperatur: -11°C
Windkühle: -17°C
Taupunkt: -15°C
Luftfeuchte: 73%
Luftdruck: 1026 hPa
Zusammenfassung: Klar
Sicht: mehr als 10 km
2018/02/25 07:30 LKPR 250730Z 36005KT CAVOK M11/M15 Q1026 NOSIG
 
EDDC - Dresden/Klotzsche, Germany
Entfernung von Station: NO 134km
Aktualisierung: 25.02.2018 08:20
Klar
Klar
 Wind von NO
Wind: NO 11 km/h
Temperatur: -11°C
Windkühle: -17°C
Taupunkt: -13°C
Luftfeuchte: 85%
Luftdruck: 1029 hPa
Zusammenfassung: Klar
Sicht: mehr als 10 km
2018/02/25 07:20 EDDC 250720Z 05006KT CAVOK M11/M13 Q1029 NOSIG
Besucherstatistik
Besucher gesamt: 958.557
Besucher heute: 263
Besucher gestern: 836
gerade online: 13
Seitenaufrufe diese Seite: 3.164
counter Statistiken